Time;durP1;ratioP1;P1;durP2;ratioP2;P2;SDS_P1;SDS_P2;PMS_P1;PMS_P2;Temp;Humidity;BMP_temperature;BMP_pressure;BME280_temperature;BME280_humidity;BME280_pressure;Samples;Min_cycle;Max_cycle;Signal;HPM_P1;HPM_P2
2021/08/26 00:06:58;;;;;;;35.60;8.70;;;13.30;99.90;;;12.10;100.00;100650.22;5007245;28;20083;-77
2021/08/26 00:09:25;;;;;;;39.22;8.73;;;13.30;99.90;;;12.11;100.00;100650.13;5045012;28;20443;-76
2021/08/26 00:11:54;;;;;;;37.72;8.75;;;13.40;99.90;;;12.21;100.00;100655.78;5019537;28;20037;-76
2021/08/26 00:14:20;;;;;;;40.58;9.70;;;13.50;99.90;;;12.31;100.00;100675.47;5020757;28;20022;-76
2021/08/26 00:16:46;;;;;;;42.22;11.15;;;13.60;99.90;;;12.32;100.00;100674.50;4992236;28;20018;-76
2021/08/26 00:19:13;;;;;;;54.78;9.07;;;13.60;99.90;;;12.38;100.00;100683.91;5047585;28;20068;-76
2021/08/26 00:21:41;;;;;;;49.50;9.38;;;13.70;99.90;;;12.43;100.00;100679.19;4992604;28;20027;-76
2021/08/26 00:24:09;;;;;;;40.83;9.15;;;13.70;99.90;;;12.48;100.00;100668.38;5046377;28;20077;-76
2021/08/26 00:26:35;;;;;;;44.53;9.25;;;13.70;99.90;;;12.48;100.00;100673.66;5046773;28;20029;-76
2021/08/26 00:29:04;;;;;;;45.92;9.45;;;13.70;99.90;;;12.50;100.00;100672.66;5012588;28;20024;-76
2021/08/26 00:31:30;;;;;;;31.67;8.05;;;14.80;99.90;;;12.57;100.00;100674.94;5027731;28;20037;-76
2021/08/26 00:33:56;;;;;;;44.15;8.40;;;13.80;99.90;;;12.61;100.00;100682.63;5015231;28;20511;-76
2021/08/26 00:36:23;;;;;;;41.60;8.93;;;13.80;99.90;;;12.60;100.00;100680.06;5000368;28;20484;-76
2021/08/26 00:38:49;;;;;;;42.55;9.13;;;13.90;99.90;;;12.72;100.00;100688.16;4998506;28;20109;-76
2021/08/26 00:41:26;;;;;;;37.28;8.77;;;13.90;99.90;;;12.71;100.00;100682.94;5001354;28;20436;-76
2021/08/26 00:43:51;;;;;;;;;;;13.90;99.90;;;12.75;100.00;100681.84;5008329;28;20037;-76
2021/08/26 00:46:17;;;;;;;41.93;8.50;;;13.90;99.90;;;12.73;100.00;100678.44;5017203;28;20052;-76
2021/08/26 00:48:48;;;;;;;39.15;7.70;;;13.90;99.90;;;12.69;100.00;100677.75;5011228;28;20032;-76
2021/08/26 00:51:14;;;;;;;45.95;7.50;;;13.90;99.90;;;12.69;100.00;100683.03;5009934;28;20117;-76
2021/08/26 00:53:41;;;;;;;48.92;8.38;;;13.90;99.90;;;12.77;100.00;100684.41;5008293;28;20041;-76
2021/08/26 00:56:14;;;;;;;37.63;7.15;;;13.70;99.90;;;12.78;100.00;100694.03;5010028;28;20032;-76
2021/08/26 00:58:48;;;;;;;34.25;7.40;;;14.00;99.90;;;12.78;100.00;100686.94;5007787;28;20022;-76
2021/08/26 01:01:39;;;;;;;45.72;7.43;;;14.00;99.90;;;12.81;100.00;100685.94;4994774;28;20049;-76
2021/08/26 01:04:15;;;;;;;46.75;8.77;;;14.00;99.90;;;12.82;100.00;100691.13;4996681;28;20046;-76
2021/08/26 01:07:14;;;;;;;;;;;14.10;99.90;;;12.91;100.00;100692.38;5020711;28;20448;-77
2021/08/26 01:09:48;;;;;;;;;;;14.10;99.90;;;12.93;100.00;100693.16;5042376;28;19921;-76
2021/08/26 01:12:20;;;;;;;32.38;6.05;;;14.10;99.90;;;12.94;100.00;100689.59;5014983;28;19929;-77
2021/08/26 01:14:48;;;;;;;34.25;6.03;;;14.20;99.90;;;12.98;100.00;100704.34;5013679;28;20067;-77
2021/08/26 01:17:34;;;;;;;40.67;6.60;;;14.20;99.90;;;13.03;100.00;100696.13;5008611;28;20037;-77
2021/08/26 01:20:04;;;;;;;42.00;7.40;;;14.30;99.90;;;13.05;100.00;100703.03;5020302;28;20049;-77
2021/08/26 01:22:33;;;;;;;37.13;7.10;;;14.30;99.90;;;13.08;100.00;100725.78;4995460;28;20025;-77
2021/08/26 01:25:14;;;;;;;46.63;7.63;;;14.30;99.90;;;13.06;100.00;100719.75;4974582;28;20431;-77
2021/08/26 01:27:50;;;;;;;40.45;6.93;;;14.30;99.90;;;13.03;100.00;100722.56;4977895;28;20473;-77
2021/08/26 01:30:23;;;;;;;46.63;6.95;;;14.20;99.90;;;12.95;100.00;100719.50;4989922;28;20061;-77
2021/08/26 01:33:00;;;;;;;44.20;7.20;;;14.20;99.90;;;12.89;100.00;100708.34;5024208;28;20060;-77
2021/08/26 01:35:30;;;;;;;34.10;6.05;;;14.20;99.90;;;12.90;100.00;100707.41;5019543;28;20029;-77
2021/08/26 01:37:57;;;;;;;40.67;7.85;;;14.20;99.90;;;12.91;100.00;100714.41;5017561;28;20025;-77
2021/08/26 01:40:43;;;;;;;43.78;7.72;;;14.10;99.90;;;12.96;100.00;100726.47;4983257;28;20476;-77
2021/08/26 01:43:12;;;;;;;35.60;6.60;;;14.20;99.90;;;12.96;100.00;100715.91;4992999;28;20034;-77
2021/08/26 01:45:43;;;;;;;43.67;6.45;;;14.20;99.90;;;13.02;100.00;100721.69;4988293;28;20110;-77
2021/08/26 01:48:14;;;;;;;38.47;5.85;;;14.30;99.90;;;13.02;100.00;100728.78;5033337;28;20528;-77
2021/08/26 01:50:40;;;;;;;26.45;6.47;;;14.30;99.90;;;12.99;100.00;100721.03;5026067;28;20033;-77
2021/08/26 01:53:06;;;;;;;41.78;5.85;;;14.20;99.90;;;12.93;100.00;100723.06;5027567;28;20075;-77
2021/08/26 01:55:32;;;;;;;28.58;5.57;;;14.20;99.90;;;13.02;100.00;100724.34;5043843;28;20048;-77
2021/08/26 01:58:00;;;;;;;28.10;5.47;;;14.30;99.90;;;12.98;100.00;100708.75;5014162;28;20505;-77
2021/08/26 02:00:29;;;;;;;28.17;5.53;;;14.20;99.90;;;12.92;100.00;100705.53;5000370;28;20052;-77
2021/08/26 02:02:55;;;;;;;24.38;4.40;;;14.20;99.90;;;12.99;100.00;100710.47;4978474;28;20047;-77
2021/08/26 02:05:21;;;;;;;20.92;3.78;;;14.20;99.90;;;12.98;100.00;100709.63;5011833;28;20072;-77
2021/08/26 02:07:49;;;;;;;19.05;4.40;;;14.20;99.90;;;12.90;100.00;100691.53;5018545;28;20041;-77
2021/08/26 02:10:15;;;;;;;12.25;2.30;;;14.10;99.90;;;12.79;100.00;100675.47;5012604;28;20045;-77
2021/08/26 02:12:42;;;;;;;16.35;2.65;;;14.10;99.90;;;12.73;100.00;100665.22;4991319;28;20041;-77
2021/08/26 02:15:10;;;;;;;13.45;2.20;;;14.00;99.90;;;12.65;100.00;100654.25;5001567;28;20147;-77
2021/08/26 02:17:37;;;;;;;7.50;2.15;;;13.90;99.90;;;12.56;100.00;100652.97;5002361;28;20167;-77
2021/08/26 02:20:11;;;;;;;4.88;1.50;;;13.90;99.90;;;12.41;100.00;100694.28;5002044;28;20037;-77
2021/08/26 02:22:37;;;;;;;7.75;1.48;;;13.70;99.90;;;12.34;100.00;100660.38;4991174;28;20048;-77
2021/08/26 02:25:08;;;;;;;6.53;1.45;;;13.70;99.90;;;12.26;100.00;100658.16;5008761;28;20408;-77
2021/08/26 02:27:34;;;;;;;3.95;0.98;;;13.60;99.90;;;12.04;100.00;100638.19;5015683;28;20095;-77
2021/08/26 02:30:00;;;;;;;4.93;1.30;;;13.50;99.90;;;11.97;100.00;100626.28;5003347;28;20501;-77
2021/08/26 02:32:29;;;;;;;12.20;1.17;;;13.30;99.90;;;11.89;100.00;100629.31;5013990;28;20034;-77
2021/08/26 02:34:59;;;;;;;5.55;1.15;;;13.30;99.90;;;11.89;100.00;100623.19;4994433;28;20041;-77
2021/08/26 02:37:25;;;;;;;4.57;1.20;;;13.20;99.90;;;11.74;100.00;100608.16;5015807;28;20025;-77
2021/08/26 02:39:52;;;;;;;10.63;1.10;;;13.10;99.90;;;11.62;100.00;100599.09;4995547;28;20033;-77
2021/08/26 02:42:20;;;;;;;3.03;1.02;;;13.00;99.90;;;11.54;100.00;100603.94;5029526;28;20644;-77
2021/08/26 02:44:47;;;;;;;1.10;0.63;;;13.00;99.90;;;11.50;100.00;100603.25;4995997;28;20037;-77
2021/08/26 02:47:13;;;;;;;3.50;0.90;;;12.90;99.90;;;11.52;100.00;100603.19;4986226;28;20032;-77
2021/08/26 02:49:39;;;;;;;9.80;0.82;;;12.90;99.90;;;11.46;100.00;100599.91;5013617;28;20029;-77
2021/08/26 02:52:06;;;;;;;8.13;0.98;;;12.90;99.90;;;11.42;100.00;100597.53;4987251;28;20057;-76
2021/08/26 02:54:32;;;;;;;3.28;0.77;;;12.80;99.90;;;11.30;100.00;100593.75;4997381;28;20117;-77
2021/08/26 02:56:58;;;;;;;3.78;0.63;;;12.70;99.90;;;11.24;100.00;100599.34;5005735;28;20029;-77
2021/08/26 02:59:24;;;;;;;6.43;0.90;;;12.60;99.90;;;11.17;100.00;100590.03;5030628;28;20025;-76
2021/08/26 03:01:50;;;;;;;4.95;1.00;;;12.60;99.90;;;11.11;100.00;100587.72;5046535;28;20619;-77
2021/08/26 03:04:16;;;;;;;3.28;0.50;;;12.50;99.90;;;11.03;100.00;100575.78;5027646;28;20536;-77
2021/08/26 03:06:42;;;;;;;9.10;0.60;;;12.40;99.90;;;11.00;100.00;100591.75;4996517;28;20132;-77
2021/08/26 03:09:08;;;;;;;2.17;0.57;;;12.40;99.90;;;10.89;100.00;100583.53;5011480;28;20030;-77
2021/08/26 03:11:34;;;;;;;10.73;0.60;;;12.30;99.90;;;10.83;100.00;100578.56;4991488;28;20072;-77
2021/08/26 03:14:01;;;;;;;3.85;0.70;;;12.30;99.90;;;10.89;100.00;100596.72;5000690;28;20029;-77
2021/08/26 03:16:27;;;;;;;1.13;0.65;;;12.40;99.90;;;11.01;100.00;100616.31;5029340;28;20473;-77
2021/08/26 03:18:53;;;;;;;1.10;0.40;;;12.40;99.90;;;11.05;100.00;100620.50;5002539;28;20408;-77
2021/08/26 03:21:19;;;;;;;1.20;0.55;;;12.40;99.90;;;11.03;100.00;100619.72;4982756;28;20034;-77
2021/08/26 03:23:45;;;;;;;2.05;0.40;;;12.50;99.90;;;11.04;100.00;100635.47;4991647;28;20029;-77
2021/08/26 03:26:11;;;;;;;1.55;0.50;;;12.40;99.90;;;11.09;100.00;100643.13;5018215;28;20100;-76
2021/08/26 03:28:37;;;;;;;1.92;0.50;;;12.50;99.90;;;11.12;100.00;100642.97;5013307;28;20025;-77
2021/08/26 03:31:04;;;;;;;4.00;0.50;;;12.50;99.90;;;11.07;100.00;100651.09;5015391;28;20041;-77
2021/08/26 03:33:30;;;;;;;1.83;0.38;;;12.50;99.90;;;11.09;100.00;100638.69;5005090;28;20029;-77
2021/08/26 03:35:56;;;;;;;7.95;0.70;;;12.50;99.90;;;11.05;100.00;100641.56;4990122;28;20067;-77
2021/08/26 03:38:22;;;;;;;1.20;0.40;;;12.50;99.90;;;10.98;100.00;100632.28;4987093;28;20048;-77
2021/08/26 03:40:48;;;;;;;3.75;0.47;;;12.40;99.90;;;10.96;100.00;100632.34;4996329;28;20029;-77
2021/08/26 03:43:14;;;;;;;2.78;0.38;;;12.40;99.90;;;10.95;100.00;100632.41;5004803;28;20037;-76
2021/08/26 03:45:40;;;;;;;2.85;0.47;;;12.30;99.90;;;10.92;100.00;100628.16;4994051;28;20142;-77
2021/08/26 03:48:06;;;;;;;1.55;0.30;;;12.30;99.90;;;10.86;100.00;100620.53;4987008;28;20049;-77
2021/08/26 03:50:32;;;;;;;2.63;0.20;;;12.30;99.90;;;10.81;100.00;100606.75;5030734;28;20145;-76
2021/08/26 03:52:58;;;;;;;1.95;0.52;;;12.20;99.90;;;10.68;100.00;100601.25;5025474;28;20046;-77
2021/08/26 03:55:24;;;;;;;2.72;0.47;;;12.10;99.90;;;10.48;100.00;100589.06;4991958;28;20058;-77
2021/08/26 03:57:50;;;;;;;3.60;0.40;;;11.90;99.90;;;10.30;100.00;100574.13;5005515;28;20721;-77
2021/08/26 04:00:16;;;;;;;2.13;0.28;;;11.70;99.90;;;10.17;100.00;100582.59;4996423;28;20116;-77
2021/08/26 04:02:42;;;;;;;4.57;0.40;;;11.60;99.90;;;10.07;100.00;100605.84;5007202;28;20024;-76
2021/08/26 04:05:09;;;;;;;2.88;0.22;;;11.60;99.90;;;10.05;100.00;100605.06;4986568;28;20527;-77
2021/08/26 04:07:35;;;;;;;4.03;0.40;;;11.50;99.90;;;10.03;100.00;100635.00;5022456;28;20049;-77
2021/08/26 04:10:02;;;;;;;6.57;0.40;;;11.40;99.90;;;9.97;100.00;100595.81;4994093;28;20034;-76
2021/08/26 04:12:28;;;;;;;1.48;0.30;;;11.40;99.90;;;9.92;100.00;100593.41;5039341;28;24675;-76
2021/08/26 04:14:54;;;;;;;5.00;0.60;;;11.40;99.90;;;9.84;100.00;100577.97;5018042;28;20029;-77
2021/08/26 04:17:21;;;;;;;0.98;0.30;;;11.30;99.90;;;9.79;100.00;100585.22;5018134;28;20138;-77
2021/08/26 04:19:47;;;;;;;1.80;0.45;;;11.30;99.90;;;9.80;100.00;100586.06;5014987;28;20060;-76
2021/08/26 04:22:14;;;;;;;2.45;0.20;;;11.30;99.90;;;9.81;100.00;100583.38;4997055;28;20066;-77
2021/08/26 04:24:41;;;;;;;1.48;0.25;;;11.30;99.90;;;9.81;100.00;100590.41;5018228;28;20108;-77
2021/08/26 04:27:08;;;;;;;1.63;0.20;;;11.30;99.90;;;9.83;100.00;100594.69;4988121;28;20110;-77
2021/08/26 04:29:34;;;;;;;8.02;0.43;;;11.30;99.90;;;9.84;100.00;100598.16;4989700;28;20055;-77
2021/08/26 04:32:00;;;;;;;7.82;0.30;;;11.30;99.90;;;9.86;100.00;100597.16;5039953;28;20416;-77
2021/08/26 04:34:26;;;;;;;5.20;0.50;;;11.30;99.90;;;9.88;100.00;100594.47;5010390;28;20071;-77
2021/08/26 04:36:52;;;;;;;2.40;0.40;;;11.30;99.90;;;9.89;100.00;100592.69;5009552;28;20056;-77
2021/08/26 04:39:18;;;;;;;2.95;0.30;;;11.30;99.90;;;9.91;100.00;100594.31;4994047;28;20048;-77
2021/08/26 04:41:44;;;;;;;3.97;0.45;;;11.40;99.90;;;9.97;100.00;100620.34;5011168;28;20067;-77
2021/08/26 04:44:10;;;;;;;1.70;0.20;;;11.40;99.90;;;10.02;100.00;100601.72;5013080;28;20241;-77
2021/08/26 04:46:36;;;;;;;0.98;0.20;;;11.50;99.90;;;10.11;100.00;100609.19;5027080;28;20431;-77
2021/08/26 04:49:02;;;;;;;1.27;0.15;;;11.60;99.90;;;10.20;100.00;100614.03;4991591;28;20075;-77
2021/08/26 04:51:28;;;;;;;2.08;0.47;;;11.70;99.90;;;10.32;100.00;100620.50;5003366;28;20071;-77
2021/08/26 04:53:54;;;;;;;4.10;0.45;;;12.00;99.90;;;10.82;100.00;100669.91;4993698;28;20064;-77
2021/08/26 04:56:20;;;;;;;3.83;0.40;;;12.70;99.90;;;11.44;100.00;100714.31;4993257;28;20056;-76
2021/08/26 04:58:46;;;;;;;2.47;0.32;;;13.00;99.90;;;11.34;99.04;100684.94;5010776;28;20028;-77
2021/08/26 05:01:12;;;;;;;1.65;0.30;;;13.00;99.90;;;11.32;98.78;100678.00;4987905;28;20034;-77
2021/08/26 05:03:38;;;;;;;1.55;0.20;;;12.80;99.90;;;11.11;99.30;100650.97;5009301;28;20029;-77
2021/08/26 05:06:06;;;;;;;1.25;0.35;;;12.60;99.90;;;10.85;99.87;100622.34;4986001;28;20028;-77
2021/08/26 05:08:32;;;;;;;6.78;0.35;;;12.40;99.90;;;10.67;100.00;100612.72;5044258;28;20030;-77
2021/08/26 05:10:58;;;;;;;1.05;0.10;;;12.20;99.90;;;10.55;100.00;100605.41;4993141;28;20120;-76
2021/08/26 05:13:25;;;;;;;4.63;0.25;;;12.00;99.90;;;10.40;100.00;100592.03;4976210;28;20045;-77
2021/08/26 05:15:54;;;;;;;0.55;0.20;;;11.90;99.90;;;10.34;100.00;100581.81;4984103;28;20164;-76
2021/08/26 05:18:20;;;;;;;1.65;0.40;;;11.80;99.90;;;10.35;100.00;100583.53;5007227;28;20041;-77
2021/08/26 05:20:46;;;;;;;1.00;0.25;;;11.90;99.90;;;10.45;100.00;100592.69;5009767;28;20138;-76
2021/08/26 05:23:12;;;;;;;2.60;0.25;;;12.00;99.90;;;10.54;100.00;100603.69;5009030;28;20125;-76
2021/08/26 05:25:38;;;;;;;2.78;0.20;;;12.00;99.90;;;10.61;100.00;100607.75;4992577;28;20550;-77
2021/08/26 05:28:04;;;;;;;3.90;0.30;;;12.10;99.90;;;10.61;100.00;100610.38;5047393;28;20087;-76
2021/08/26 05:30:30;;;;;;;6.13;0.28;;;12.10;99.90;;;10.71;100.00;100621.31;5018635;28;20029;-76
2021/08/26 05:32:57;;;;;;;0.80;0.30;;;12.20;99.90;;;10.76;100.00;100624.59;5005931;28;20033;-76
2021/08/26 05:35:27;;;;;;;0.63;0.10;;;12.30;99.90;;;10.95;100.00;100643.81;5015570;28;20021;-76
2021/08/26 05:37:53;;;;;;;0.77;0.10;;;12.50;99.90;;;11.29;100.00;100681.66;5014536;28;20029;-77
2021/08/26 05:40:19;;;;;;;2.72;0.35;;;13.10;99.90;;;12.07;97.96;100742.75;5037224;28;20101;-77
2021/08/26 05:42:45;;;;;;;0.45;0.10;;;14.20;99.90;;;13.18;90.99;100811.59;5000405;28;20068;-77
2021/08/26 05:45:11;;;;;;;4.47;0.30;;;15.10;99.90;;;13.74;87.06;100844.56;5004108;28;20591;-77
2021/08/26 05:47:37;;;;;;;3.13;0.30;;;15.60;99.90;;;14.16;85.53;100863.31;5015296;28;20026;-77
2021/08/26 05:50:04;;;;;;;2.10;0.30;;;16.40;99.90;;;14.69;82.16;100890.19;5010247;28;25228;-77
2021/08/26 05:52:30;;;;;;;2.50;0.10;;;17.40;99.90;;;15.79;79.09;101002.69;5001335;28;20088;-77
2021/08/26 05:54:56;;;;;;;0.65;0.20;;;17.90;99.90;;;16.00;77.17;100983.63;5010819;28;20443;-77
2021/08/26 05:57:22;;;;;;;0.90;0.20;;;18.30;99.90;;;15.86;76.52;100949.19;5051222;28;20043;-77
2021/08/26 05:59:48;;;;;;;1.45;0.10;;;18.00;99.90;;;15.38;77.40;100907.09;5035754;28;20063;-77
2021/08/26 06:02:14;;;;;;;1.05;0.10;;;17.90;99.90;;;16.04;77.04;100998.44;5017106;28;20030;-77
2021/08/26 06:04:40;;;;;;;1.45;0.20;;;18.50;99.90;;;16.63;73.00;100995.44;5031517;28;20025;-77
2021/08/26 06:07:06;;;;;;;2.97;0.10;;;19.40;99.90;;;17.81;70.98;101056.38;5018504;28;20548;-77
2021/08/26 06:09:32;;;;;;;3.15;0.20;;;20.10;99.90;;;18.36;66.16;101077.38;4999140;28;20034;-77
2021/08/26 06:11:58;;;;;;;2.45;0.28;;;20.40;99.90;;;17.43;66.62;100965.97;5036062;28;20088;-77
2021/08/26 06:14:24;;;;;;;0.95;0.13;;;19.70;99.90;;;16.68;72.89;100907.38;5003620;28;20034;-78
2021/08/26 06:16:50;;;;;;;1.40;0.10;;;18.90;99.90;;;16.51;75.36;100914.69;4988508;28;20029;-77
2021/08/26 06:19:16;;;;;;;6.03;0.10;;;18.30;99.90;;;15.92;74.41;100858.50;5003251;28;20065;-77
2021/08/26 06:21:42;;;;;;;1.35;0.20;;;17.20;99.90;;;14.85;78.68;100774.31;5011386;28;20064;-77
2021/08/26 06:24:08;;;;;;;0.45;0.10;;;16.50;99.90;;;14.48;79.90;100763.34;5012604;28;20100;-77
2021/08/26 06:26:35;;;;;;;0.75;0.15;;;16.30;99.90;;;14.49;82.45;100777.44;5013701;28;20025;-76
2021/08/26 06:29:01;;;;;;;0.08;0.00;;;16.00;99.90;;;14.18;80.88;100757.28;4988858;28;20029;-77
2021/08/26 06:31:27;;;;;;;1.40;0.10;;;15.70;99.90;;;13.85;82.74;100731.94;5012561;28;20548;-77
2021/08/26 06:33:53;;;;;;;0.20;0.05;;;15.50;99.90;;;13.75;84.05;100734.25;4996320;28;20042;-76
2021/08/26 06:36:19;;;;;;;3.90;0.20;;;15.20;99.90;;;13.51;83.65;100720.69;5013281;28;20444;-76
2021/08/26 06:38:45;;;;;;;2.10;0.20;;;14.90;99.90;;;13.29;85.10;100718.47;4996942;28;20035;-76
2021/08/26 06:41:11;;;;;;;6.93;0.10;;;14.70;99.90;;;13.13;86.42;100766.03;5011717;28;20026;-76
2021/08/26 06:43:39;;;;;;;2.15;0.20;;;14.60;99.90;;;13.17;86.27;100743.75;5011233;28;20034;-77
2021/08/26 06:46:05;;;;;;;0.68;0.10;;;14.50;99.90;;;13.17;86.47;100737.63;5012958;28;20029;-76
2021/08/26 06:48:31;;;;;;;2.33;0.13;;;14.60;99.90;;;13.30;85.77;100747.47;5050250;28;20029;-77
2021/08/26 06:50:57;;;;;;;2.38;0.00;;;14.80;99.90;;;13.49;86.08;100770.19;5002588;28;20037;-76
2021/08/26 06:53:23;;;;;;;0.45;0.03;;;15.00;99.90;;;13.65;85.00;100783.38;5045840;28;20541;-77
2021/08/26 06:55:49;;;;;;;1.40;0.10;;;15.00;99.90;;;13.63;85.62;100769.38;4998502;28;20029;-76
2021/08/26 06:58:15;;;;;;;1.20;0.00;;;15.10;99.90;;;13.77;87.59;100787.09;5020848;28;20048;-77
2021/08/26 07:00:41;;;;;;;1.92;0.20;;;15.20;99.90;;;13.87;84.58;100796.22;4997144;28;20477;-76
2021/08/26 07:03:07;;;;;;;0.32;0.10;;;15.10;99.90;;;13.72;85.44;100769.69;5017923;28;20028;-77
2021/08/26 07:05:33;;;;;;;0.82;0.00;;;15.00;99.90;;;13.57;85.45;100760.03;5029650;28;20029;-77
2021/08/26 07:07:59;;;;;;;0.20;0.03;;;15.00;99.90;;;13.52;86.05;100759.44;5032884;28;20028;-76
2021/08/26 07:10:25;;;;;;;0.47;0.10;;;15.00;99.90;;;13.55;86.33;100759.25;5024909;28;20531;-76
2021/08/26 07:12:51;;;;;;;0.77;0.10;;;15.00;99.90;;;13.56;86.21;100765.41;5031642;28;20025;-77
2021/08/26 07:15:17;;;;;;;0.77;0.10;;;15.00;99.90;;;13.68;86.16;100773.47;5012891;28;20520;-76
2021/08/26 07:17:46;;;;;;;2.10;0.10;;;15.00;99.90;;;13.64;87.08;100763.16;4994185;28;20049;-76
2021/08/26 07:20:12;;;;;;;1.02;0.30;;;14.90;99.90;;;13.59;87.82;100757.28;5019567;28;20579;-77
2021/08/26 07:22:38;;;;;;;2.80;0.10;;;14.90;99.90;;;13.53;87.33;100753.19;5011161;28;20496;-76
2021/08/26 07:25:05;;;;;;;5.93;0.10;;;14.80;99.90;;;13.45;86.95;100744.84;5031293;28;20029;-76
2021/08/26 07:27:31;;;;;;;1.80;0.10;;;14.70;99.90;;;13.23;87.98;100722.28;5037389;28;20478;-77
2021/08/26 07:29:57;;;;;;;0.52;0.08;;;14.60;99.90;;;13.13;88.94;100721.97;5004076;28;20411;-76
2021/08/26 07:32:23;;;;;;;1.17;0.20;;;14.50;99.90;;;13.04;89.52;100724.25;5020051;28;20112;-76
2021/08/26 07:34:49;;;;;;;4.13;0.25;;;14.40;99.90;;;13.08;90.92;100725.78;5001518;28;20040;-77
2021/08/26 07:37:15;;;;;;;5.55;0.30;;;14.50;99.90;;;13.18;92.27;100737.56;5032812;28;20033;-76
2021/08/26 07:39:41;;;;;;;1.38;0.20;;;14.50;99.90;;;13.18;91.20;100731.44;5008073;28;20029;-76
2021/08/26 07:42:08;;;;;;;1.70;0.20;;;14.60;99.90;;;13.24;91.31;100739.84;5011699;28;20026;-77
2021/08/26 07:44:34;;;;;;;0.20;0.00;;;14.70;99.90;;;13.41;91.30;100754.78;4995230;28;20033;-76
2021/08/26 07:47:00;;;;;;;4.30;0.17;;;14.80;99.90;;;13.46;90.38;100750.06;4983273;28;20036;-76
2021/08/26 07:49:26;;;;;;;0.75;0.13;;;14.80;99.90;;;13.49;90.23;100751.69;4991174;28;20044;-76
2021/08/26 07:51:52;;;;;;;0.63;0.10;;;14.90;99.90;;;13.91;91.28;100792.44;4991553;28;20497;-76
2021/08/26 07:54:18;;;;;;;2.33;0.10;;;15.70;99.90;;;15.44;88.03;100919.09;4994113;28;20029;-77
2021/08/26 07:56:44;;;;;;;1.25;0.10;;;17.30;99.90;;;17.43;78.99;101038.69;5011533;28;20080;-77
2021/08/26 07:59:10;;;;;;;1.00;0.17;;;18.50;99.90;;;17.77;74.97;101017.59;4987082;28;20022;-77
2021/08/26 08:01:36;;;;;;;0.30;0.10;;;19.10;99.90;;;17.88;72.88;100997.38;5011829;28;20028;-77
2021/08/26 08:04:02;;;;;;;3.03;0.22;;;19.40;99.90;;;18.55;72.82;101045.69;4987498;28;20033;-77
2021/08/26 08:06:28;;;;;;;0.45;0.20;;;19.30;99.90;;;17.49;73.23;100944.19;5023151;28;20095;-77
2021/08/26 08:08:54;;;;;;;1.90;0.20;;;18.50;99.90;;;16.67;76.82;100884.38;5003741;28;20434;-77
2021/08/26 08:11:21;;;;;;;0.10;0.00;;;17.90;99.90;;;15.65;79.75;100829.28;5011028;28;20063;-77
2021/08/26 08:13:47;;;;;;;1.10;0.10;;;17.50;99.90;;;16.17;80.19;100943.53;5029190;28;20120;-77
2021/08/26 08:16:13;;;;;;;1.17;0.10;;;18.30;99.90;;;18.02;75.25;101029.19;5022830;28;20033;-77
2021/08/26 08:18:39;;;;;;;1.25;0.10;;;18.80;99.90;;;17.26;73.65;100919.25;5026300;28;20030;-77
2021/08/26 08:21:05;;;;;;;1.80;0.15;;;18.00;99.90;;;15.97;76.40;100888.25;4987546;28;20036;-77
2021/08/26 08:23:32;;;;;;;4.13;0.30;;;17.80;99.90;;;16.64;79.31;100932.47;5010665;28;20037;-77
2021/08/26 08:25:58;;;;;;;1.35;0.10;;;17.90;99.90;;;16.48;79.75;100906.94;5019683;28;20501;-77
2021/08/26 08:28:24;;;;;;;0.85;0.13;;;17.60;99.90;;;15.89;77.40;100858.69;4986758;28;20033;-77
2021/08/26 08:30:50;;;;;;;2.63;0.30;;;17.20;99.90;;;15.49;80.17;100830.31;4991619;28;20025;-76
2021/08/26 08:33:17;;;;;;;2.13;0.20;;;17.00;99.90;;;15.07;79.63;100787.03;4995689;28;20025;-77
2021/08/26 08:35:43;;;;;;;4.07;0.20;;;16.40;99.90;;;14.44;80.58;100751.22;5010357;28;20039;-76
2021/08/26 08:38:09;;;;;;;0.57;0.17;;;16.00;99.90;;;14.34;86.41;100747.44;5010442;28;20041;-77
2021/08/26 08:40:35;;;;;;;5.53;0.30;;;15.80;99.90;;;14.20;86.88;100735.06;5002147;28;20033;-76
2021/08/26 08:43:03;;;;;;;2.58;0.30;;;15.50;99.90;;;13.97;87.74;100717.94;5008260;28;20045;-76
2021/08/26 08:45:29;;;;;;;4.25;0.30;;;15.50;99.90;;;14.11;89.02;100728.53;5010864;28;20382;-77
2021/08/26 08:47:58;;;;;;;2.65;0.43;;;15.50;99.90;;;14.15;89.39;100734.50;5009080;28;21442;-77
2021/08/26 08:50:26;;;;;;;0.45;0.10;;;15.40;99.90;;;13.91;87.54;100715.69;5010834;28;20049;-77
2021/08/26 08:52:54;;;;;;;0.77;0.10;;;15.30;99.90;;;13.87;88.11;100711.50;5005187;28;20032;-77
2021/08/26 08:55:20;;;;;;;2.63;0.10;;;15.70;99.90;;;15.12;87.50;100843.28;5010580;28;20075;-76
2021/08/26 08:57:46;;;;;;;1.38;0.20;;;16.60;99.90;;;15.76;82.31;100866.63;4991035;28;20026;-77
2021/08/26 09:00:20;;;;;;;1.27;0.10;;;16.80;99.90;;;15.49;81.75;100818.84;5030675;28;20018;-77
2021/08/26 09:02:47;;;;;;;1.30;0.17;;;16.70;99.90;;;15.12;84.01;100792.91;4997485;28;20033;-77
2021/08/26 09:05:28;;;;;;;2.55;0.22;;;16.40;99.90;;;14.82;83.90;100757.75;4979697;28;20531;-76
2021/08/26 09:08:16;;;;;;;1.30;0.20;;;16.00;99.90;;;14.53;85.50;100740.03;5007824;28;20038;-77
2021/08/26 09:11:13;;;;;;;0.55;0.13;;;16.00;99.90;;;14.74;85.48;100768.84;4982807;28;20068;-76
2021/08/26 09:13:45;;;;;;;0.55;0.10;;;16.20;99.90;;;14.87;80.63;100787.47;4964373;28;20049;-76
2021/08/26 09:16:46;;;;;;;0.20;0.00;;;16.20;99.90;;;14.71;74.68;100758.44;4970394;28;20501;-76
2021/08/26 09:19:42;;;;;;;1.67;0.15;;;16.20;99.90;;;14.86;77.72;100778.66;4958841;28;20095;-76
2021/08/26 09:22:37;;;;;;;3.92;0.10;;;16.10;99.90;;;14.46;76.22;100737.91;4965402;28;20033;-75
2021/08/26 09:25:55;;;;;;;1.23;0.10;;;15.80;99.90;;;13.97;78.32;100702.03;5002774;28;20108;-77
2021/08/26 09:29:13;;;;;;;1.30;0.20;;;15.40;99.90;;;13.72;81.13;100702.69;4976368;28;20033;-76
2021/08/26 09:32:22;;;;;;;1.13;0.20;;;14.80;99.90;;;12.84;89.35;100744.75;4981989;28;20283;-76
2021/08/26 09:35:41;;;;;;;3.90;0.30;;;14.40;99.90;;;12.71;91.64;100797.41;4988637;28;20038;-76
2021/08/26 09:39:21;;;;;;;0.10;0.00;;;14.30;99.90;;;12.79;91.91;100767.94;4988585;28;20036;-77
2021/08/26 09:42:22;;;;;;;2.58;0.10;;;14.20;99.90;;;12.79;90.72;100757.38;4984831;28;20087;-76
2021/08/26 09:45:45;;;;;;;0.10;0.05;;;14.10;99.90;;;12.74;90.10;100743.53;4992876;28;20063;-76
2021/08/26 09:48:36;;;;;;;0.10;0.10;;;14.20;99.90;;;12.90;89.69;100759.41;4979948;28;20913;-76
2021/08/26 09:51:32;;;;;;;0.88;0.10;;;14.40;99.90;;;13.15;88.42;100772.09;4981356;28;20041;-76
2021/08/26 09:54:57;;;;;;;1.00;0.10;;;14.50;99.90;;;13.28;88.63;100767.84;4968447;28;20060;-76
2021/08/26 09:58:16;;;;;;;1.00;0.10;;;14.70;99.90;;;13.31;86.86;100757.09;4984278;28;20356;-76
2021/08/26 10:01:55;;;;;;;0.35;0.10;;;14.60;99.90;;;13.18;87.76;100734.91;4988131;28;20531;-76
2021/08/26 10:15:44;;;;;;;0.22;0.10;;;15.00;99.90;;;13.95;88.36;100789.53;4975684;28;20059;-76
2021/08/26 10:19:04;;;;;;;1.35;0.38;;;15.40;99.90;;;14.14;85.69;100786.59;5027217;28;20079;-77
2021/08/26 10:22:23;;;;;;;1.38;0.20;;;15.50;99.90;;;14.41;86.58;100799.13;4975087;28;20111;-77
2021/08/26 10:25:34;;;;;;;1.02;0.20;;;15.90;99.90;;;14.79;85.74;100819.75;4968189;28;20218;-77
2021/08/26 10:28:59;;;;;;;0.22;0.10;;;16.10;99.90;;;14.35;84.10;100759.75;4986254;28;20049;-77
2021/08/26 10:32:17;;;;;;;2.63;0.25;;;15.30;99.90;;;13.38;88.65;100693.28;4986345;28;20036;-77
2021/08/26 10:35:42;;;;;;;1.67;0.30;;;14.70;99.90;;;13.06;93.04;100685.38;4988054;28;20056;-77
2021/08/26 10:39:04;;;;;;;4.38;0.30;;;14.60;99.90;;;13.17;94.75;100777.28;4984251;28;20057;-77
2021/08/26 10:42:45;;;;;;;3.88;0.20;;;14.60;99.90;;;13.19;90.59;100741.88;4972576;28;20098;-77
2021/08/26 10:46:09;;;;;;;1.95;0.20;;;14.50;99.90;;;13.21;89.32;100744.47;4908097;28;20045;-77